Time;durP1;ratioP1;P1;durP2;ratioP2;P2;SDS_P1;SDS_P2;PMS_P1;PMS_P2;Temp;Humidity;BMP_temperature;BMP_pressure;BME280_temperature;BME280_humidity;BME280_pressure;Samples;Min_cycle;Max_cycle;Signal;HPM_P1;HPM_P2
2021/01/01 00:02:13;;;;;;;2.95;2.65;;;16.60;46.90;;;;;;6111684;23;20133;-84
2021/01/01 00:04:43;;;;;;;2.72;2.50;;;16.70;46.90;;;;;;6063987;23;20486;-83
2021/01/01 00:07:15;;;;;;;3.10;2.80;;;16.70;46.90;;;;;;6088604;23;20145;-84
2021/01/01 00:09:45;;;;;;;2.97;2.67;;;16.70;46.90;;;;;;6087521;23;20168;-84
2021/01/01 00:12:21;;;;;;;2.95;2.65;;;16.60;46.90;;;;;;6087807;23;20161;-83
2021/01/01 00:14:53;;;;;;;3.20;2.67;;;16.60;46.90;;;;;;6087947;23;20488;-83
2021/01/01 00:17:30;;;;;;;3.08;2.78;;;16.70;46.90;;;;;;6113262;23;20141;-83
2021/01/01 00:20:04;;;;;;;3.25;2.90;;;16.60;46.90;;;;;;6068746;23;20259;-84
2021/01/01 00:22:41;;;;;;;2.92;2.63;;;16.70;47.10;;;;;;6068459;23;20226;-83
2021/01/01 00:25:09;;;;;;;2.92;2.50;;;16.60;47.10;;;;;;6115473;23;20492;-84
2021/01/01 00:27:44;;;;;;;3.47;2.70;;;16.60;47.10;;;;;;6092644;23;20472;-83
2021/01/01 00:30:18;;;;;;;3.25;2.90;;;16.60;47.10;;;;;;6068479;23;20143;-84
2021/01/01 00:32:55;;;;;;;3.13;2.83;;;16.60;47.10;;;;;;6092753;23;20195;-83
2021/01/01 00:35:34;;;;;;;3.25;2.78;;;16.60;47.20;;;;;;6092096;23;20152;-83
2021/01/01 00:38:04;;;;;;;3.50;2.92;;;16.50;47.10;;;;;;6093057;23;20229;-84
2021/01/01 00:40:29;;;;;;;3.70;3.00;;;16.60;47.20;;;;;;6092009;23;20182;-84
2021/01/01 00:43:10;;;;;;;3.00;2.70;;;16.60;47.20;;;;;;6092129;23;20136;-83
2021/01/01 00:45:41;;;;;;;3.53;2.95;;;16.60;47.20;;;;;;6068570;23;20238;-83
2021/01/01 00:48:14;;;;;;;3.13;2.83;;;16.60;47.20;;;;;;6115975;23;20140;-83
2021/01/01 00:50:44;;;;;;;3.10;2.80;;;16.60;47.20;;;;;;6092377;23;20179;-84
2021/01/01 00:53:12;;;;;;;3.10;2.80;;;16.60;47.20;;;;;;6068809;23;20140;-84
2021/01/01 00:55:46;;;;;;;3.25;2.95;;;16.60;47.20;;;;;;6068155;23;20158;-83
2021/01/01 00:58:18;;;;;;;3.10;2.63;;;16.60;47.20;;;;;;6091658;23;20159;-84
2021/01/01 01:00:46;;;;;;;3.22;2.92;;;16.60;47.20;;;;;;6068456;23;20156;-84
2021/01/01 01:03:19;;;;;;;3.20;2.90;;;16.60;47.30;;;;;;6092663;23;20199;-84
2021/01/01 01:05:47;;;;;;;3.03;2.72;;;16.60;47.20;;;;;;6116678;23;20561;-84
2021/01/01 01:08:12;;;;;;;3.30;3.00;;;16.60;47.30;;;;;;6068274;23;20176;-84
2021/01/01 01:10:44;;;;;;;3.42;2.70;;;16.60;47.20;;;;;;6092552;23;20140;-84
2021/01/01 01:13:09;;;;;;;3.22;2.60;;;16.60;47.30;;;;;;6068371;23;20156;-84
2021/01/01 01:15:35;;;;;;;3.15;2.85;;;16.60;47.20;;;;;;6067520;23;20148;-84
2021/01/01 01:18:13;;;;;;;3.05;2.75;;;16.60;47.20;;;;;;6068101;23;20160;-84
2021/01/01 01:20:46;;;;;;;3.22;2.85;;;16.60;47.30;;;;;;6092090;23;20207;-84
2021/01/01 01:23:15;;;;;;;3.15;2.85;;;16.60;47.30;;;;;;6068673;23;20174;-83
2021/01/01 01:25:44;;;;;;;3.75;3.00;;;16.60;47.20;;;;;;6067603;23;20179;-83
2021/01/01 01:28:14;;;;;;;3.25;2.95;;;16.60;47.20;;;;;;6115203;23;20162;-84
2021/01/01 01:30:44;;;;;;;3.00;2.70;;;16.60;47.30;;;;;;6067302;23;20144;-83
2021/01/01 01:33:14;;;;;;;3.63;3.08;;;16.60;47.30;;;;;;6092669;23;20136;-84
2021/01/01 01:35:47;;;;;;;3.45;2.90;;;16.50;47.40;;;;;;6091553;23;20213;-83
2021/01/01 01:38:24;;;;;;;3.22;2.92;;;16.50;47.40;;;;;;6092041;23;20211;-83
2021/01/01 01:41:03;;;;;;;3.13;2.80;;;16.50;47.40;;;;;;6091800;23;20162;-84
2021/01/01 01:43:41;;;;;;;3.53;2.90;;;16.50;47.50;;;;;;6093372;23;20148;-83
2021/01/01 01:46:12;;;;;;;3.42;3.05;;;16.50;47.40;;;;;;6116814;23;20136;-84
2021/01/01 01:48:42;;;;;;;3.08;2.78;;;16.60;47.40;;;;;;6092510;23;20167;-84
2021/01/01 01:51:08;;;;;;;3.33;2.67;;;16.50;47.50;;;;;;6090463;23;20148;-83
2021/01/01 01:53:47;;;;;;;3.50;3.15;;;16.50;47.30;;;;;;6068018;23;20145;-84
2021/01/01 01:56:18;;;;;;;3.67;3.03;;;16.50;47.40;;;;;;6091444;23;20129;-84
2021/01/01 01:58:50;;;;;;;3.35;2.97;;;16.50;47.40;;;;;;6068175;23;20172;-84
2021/01/01 02:01:15;;;;;;;3.00;2.70;;;16.50;47.50;;;;;;6068051;23;20160;-83
2021/01/01 02:03:54;;;;;;;3.35;3.03;;;16.50;47.40;;;;;;6090981;23;20175;-84
2021/01/01 02:06:21;;;;;;;3.28;2.80;;;16.50;47.40;;;;;;6091841;23;20565;-84
2021/01/01 02:09:01;;;;;;;3.05;2.70;;;16.50;47.40;;;;;;6115382;23;20200;-83
2021/01/01 02:11:36;;;;;;;3.75;3.05;;;16.50;47.30;;;;;;6066671;23;20158;-84
2021/01/01 02:14:06;;;;;;;4.05;2.90;;;16.50;47.40;;;;;;6115545;23;20136;-84
2021/01/01 02:16:37;;;;;;;3.33;3.03;;;16.50;47.40;;;;;;6091723;23;20140;-83
2021/01/01 02:19:02;;;;;;;3.38;3.08;;;16.50;47.40;;;;;;6066889;23;20162;-84
2021/01/01 02:21:32;;;;;;;3.53;3.17;;;16.50;47.40;;;;;;6066693;23;20159;-84
2021/01/01 02:24:05;;;;;;;3.08;2.78;;;16.50;47.30;;;;;;6114832;23;20164;-84
2021/01/01 02:26:53;;;;;;;3.92;3.00;;;16.50;47.40;;;;;;6092379;23;20212;-84
2021/01/01 02:29:21;;;;;;;3.67;3.03;;;16.50;47.40;;;;;;6091195;23;20157;-83
2021/01/01 02:31:49;;;;;;;3.40;2.90;;;16.60;47.30;;;;;;6067627;23;20167;-83
2021/01/01 02:34:22;;;;;;;3.22;2.80;;;16.60;47.30;;;;;;6089683;23;20184;-83
2021/01/01 02:36:48;;;;;;;3.45;3.10;;;16.60;47.40;;;;;;6115507;23;20138;-84
2021/01/01 02:39:26;;;;;;;3.40;3.10;;;16.50;47.40;;;;;;6067862;23;20155;-85
2021/01/01 02:42:05;;;;;;;3.20;2.90;;;16.50;47.50;;;;;;6067369;23;20179;-83
2021/01/01 02:44:38;;;;;;;3.30;3.00;;;16.50;47.50;;;;;;6090693;23;20159;-84
2021/01/01 02:47:11;;;;;;;3.40;3.08;;;16.50;47.50;;;;;;6116316;23;20215;-83
2021/01/01 02:49:52;;;;;;;3.38;3.00;;;16.50;47.50;;;;;;6090864;23;20148;-83
2021/01/01 02:52:28;;;;;;;3.05;2.75;;;16.50;47.50;;;;;;6115759;23;20135;-83
2021/01/01 02:54:55;;;;;;;3.15;2.85;;;16.50;47.50;;;;;;6067125;23;20152;-83
2021/01/01 02:57:24;;;;;;;3.45;3.10;;;16.50;47.40;;;;;;6114871;23;20143;-84
2021/01/01 03:00:00;;;;;;;3.30;2.90;;;16.60;47.40;;;;;;6115579;23;20160;-83
2021/01/01 03:02:28;;;;;;;3.63;3.08;;;16.50;47.50;;;;;;6091346;23;20166;-84
2021/01/01 03:05:12;;;;;;;3.33;3.03;;;16.50;47.50;;;;;;6115456;23;20160;-83
2021/01/01 03:07:44;;;;;;;3.50;3.10;;;16.50;47.50;;;;;;6092004;23;20152;-83
2021/01/01 03:10:17;;;;;;;3.88;3.10;;;16.50;47.50;;;;;;6115146;23;20136;-83
2021/01/01 03:12:52;;;;;;;3.33;3.03;;;16.50;47.50;;;;;;6091166;23;20148;-83
2021/01/01 03:15:25;;;;;;;3.85;3.33;;;16.50;47.50;;;;;;6115827;23;20135;-84
2021/01/01 03:18:12;;;;;;;3.70;3.30;;;16.50;47.50;;;;;;6091446;23;20145;-83
2021/01/01 03:20:42;;;;;;;3.72;3.30;;;16.50;47.50;;;;;;6087202;23;20195;-83
2021/01/01 03:23:13;;;;;;;3.50;3.20;;;16.50;47.50;;;;;;6091051;23;20152;-83
2021/01/01 03:25:43;;;;;;;3.50;3.05;;;16.50;47.50;;;;;;6116052;23;20175;-83
2021/01/01 03:28:18;;;;;;;3.92;3.38;;;16.50;47.50;;;;;;6113507;23;20152;-83
2021/01/01 03:31:03;;;;;;;4.00;3.13;;;16.50;47.50;;;;;;6066812;23;20148;-83
2021/01/01 03:33:35;;;;;;;3.53;3.22;;;16.50;47.60;;;;;;6110669;23;20203;-83
2021/01/01 03:36:05;;;;;;;3.53;3.22;;;16.50;47.60;;;;;;6114631;23;20132;-83
2021/01/01 03:38:39;;;;;;;4.72;3.20;;;16.50;47.50;;;;;;6091143;23;20144;-84
2021/01/01 03:41:19;;;;;;;3.67;3.17;;;16.40;47.60;;;;;;6140901;23;20192;-83
2021/01/01 03:43:49;;;;;;;3.90;3.30;;;16.50;47.50;;;;;;6090460;23;20164;-84
2021/01/01 03:46:31;;;;;;;3.85;3.30;;;16.50;47.50;;;;;;6093311;23;20261;-83
2021/01/01 03:48:57;;;;;;;3.85;3.20;;;16.40;47.60;;;;;;6116949;23;20137;-83
2021/01/01 03:51:42;;;;;;;3.45;3.15;;;16.40;47.70;;;;;;6093026;23;20136;-84
2021/01/01 03:54:13;;;;;;;3.47;3.05;;;16.50;48.30;;;;;;6022179;23;20160;-83
2021/01/01 03:56:43;;;;;;;4.03;3.40;;;16.50;47.60;;;;;;6091860;23;20148;-83
2021/01/01 03:59:20;;;;;;;3.63;3.13;;;16.50;47.50;;;;;;6116930;23;20147;-84
2021/01/01 04:02:09;;;;;;;3.70;3.33;;;16.50;47.50;;;;;;6093778;23;20212;-84
2021/01/01 04:04:40;;;;;;;3.92;3.30;;;16.50;47.50;;;;;;6116156;23;20179;-83
2021/01/01 04:07:19;;;;;;;3.58;3.28;;;16.50;47.60;;;;;;6093588;23;20140;-83
2021/01/01 04:09:46;;;;;;;3.40;2.80;;;16.50;47.70;;;;;;6092959;23;20144;-83
2021/01/01 04:12:17;;;;;;;3.95;3.53;;;16.50;47.60;;;;;;6116192;23;20133;-83
2021/01/01 04:14:49;;;;;;;3.60;3.28;;;16.50;47.60;;;;;;6116359;23;20180;-83
2021/01/01 04:17:28;;;;;;;3.83;3.40;;;16.50;47.60;;;;;;6092643;23;20152;-84
2021/01/01 04:19:57;;;;;;;4.68;3.47;;;16.50;47.60;;;;;;6115797;23;20211;-84
2021/01/01 04:22:34;;;;;;;4.10;3.30;;;16.50;47.60;;;;;;6092752;23;20188;-84
2021/01/01 04:25:12;;;;;;;4.03;3.63;;;16.40;47.70;;;;;;6141824;23;20160;-83
2021/01/01 04:27:51;;;;;;;3.80;3.40;;;16.40;47.70;;;;;;6116467;23;20182;-83
2021/01/01 04:30:27;;;;;;;3.65;3.30;;;16.50;47.70;;;;;;6116049;23;20152;-83
2021/01/01 04:32:54;;;;;;;4.30;3.50;;;16.40;47.70;;;;;;6092504;23;20144;-83
2021/01/01 04:35:33;;;;;;;3.60;3.22;;;16.50;47.80;;;;;;6092411;23;20156;-83
2021/01/01 04:38:01;;;;;;;3.83;3.30;;;16.50;47.70;;;;;;6117407;23;20155;-83
2021/01/01 04:40:42;;;;;;;4.70;3.50;;;16.50;47.70;;;;;;6092279;23;20152;-84
2021/01/01 04:43:23;;;;;;;4.20;3.13;;;16.50;47.70;;;;;;6116697;23;20163;-83
2021/01/01 04:45:59;;;;;;;3.70;3.30;;;16.50;47.60;;;;;;6091796;23;20179;-83
2021/01/01 04:48:27;;;;;;;4.18;3.55;;;16.50;47.50;;;;;;6092414;23;20534;-84
2021/01/01 04:50:54;;;;;;;3.80;3.33;;;16.50;47.50;;;;;;6115817;23;20138;-84
2021/01/01 04:53:22;;;;;;;4.05;3.65;;;16.50;47.60;;;;;;6116407;23;20174;-83
2021/01/01 04:55:50;;;;;;;4.30;3.58;;;16.60;47.50;;;;;;6116014;23;20179;-84
2021/01/01 04:58:17;;;;;;;4.32;3.53;;;16.50;47.50;;;;;;6091958;23;20202;-83
2021/01/01 05:00:55;;;;;;;3.67;3.38;;;16.60;47.50;;;;;;6091999;23;20176;-83
2021/01/01 05:03:27;;;;;;;4.28;3.60;;;16.50;47.40;;;;;;6092693;23;20183;-84
2021/01/01 05:05:54;;;;;;;4.30;3.88;;;16.60;47.50;;;;;;6116167;23;20136;-84
2021/01/01 05:08:25;;;;;;;4.28;3.80;;;16.50;47.50;;;;;;6116075;23;20215;-83
2021/01/01 05:10:52;;;;;;;4.07;3.67;;;16.50;47.50;;;;;;6116298;23;20187;-84
2021/01/01 05:13:19;;;;;;;4.57;4.07;;;16.50;47.50;;;;;;6115859;23;20180;-83
2021/01/01 05:15:48;;;;;;;3.92;3.47;;;16.50;47.30;;;;;;6141048;23;20139;-84
2021/01/01 05:18:24;;;;;;;4.43;3.72;;;16.60;47.40;;;;;;6116159;23;20152;-85
2021/01/01 05:20:57;;;;;;;4.10;3.70;;;16.50;47.40;;;;;;6115766;23;20188;-84
2021/01/01 05:23:25;;;;;;;4.18;3.58;;;16.50;47.30;;;;;;6092897;23;20228;-84
2021/01/01 05:26:12;;;;;;;4.80;3.95;;;16.50;47.40;;;;;;6141544;23;20194;-84
2021/01/01 05:28:52;;;;;;;4.38;3.78;;;16.60;47.30;;;;;;6091934;23;20155;-83
2021/01/01 05:31:30;;;;;;;4.90;4.15;;;16.50;47.30;;;;;;6115496;23;20151;-84
2021/01/01 05:34:07;;;;;;;4.47;3.75;;;16.50;47.30;;;;;;6115968;23;20143;-84
2021/01/01 05:37:00;;;;;;;5.75;4.03;;;16.60;47.30;;;;;;6116675;23;20586;-84
2021/01/01 05:39:33;;;;;;;4.80;4.20;;;16.50;47.30;;;;;;6092363;23;20160;-84
2021/01/01 05:42:01;;;;;;;4.75;4.25;;;16.60;47.10;;;;;;6092538;23;20192;-84
2021/01/01 05:44:38;;;;;;;4.18;3.70;;;16.60;47.00;;;;;;6115217;23;20166;-84
2021/01/01 05:47:15;;;;;;;4.80;4.00;;;16.60;47.10;;;;;;6091149;23;20152;-83
2021/01/01 05:49:43;;;;;;;4.30;3.80;;;16.60;47.00;;;;;;6115737;23;20136;-84
2021/01/01 05:52:11;;;;;;;4.88;4.38;;;16.60;47.00;;;;;;6141214;23;20125;-84
2021/01/01 05:54:41;;;;;;;5.32;3.85;;;16.60;47.00;;;;;;6092042;23;20500;-84
2021/01/01 05:57:09;;;;;;;4.40;3.88;;;16.60;47.00;;;;;;6067807;23;20149;-84
2021/01/01 05:59:39;;;;;;;4.75;4.10;;;16.60;47.00;;;;;;6092035;23;20139;-84
2021/01/01 06:02:08;;;;;;;4.57;3.67;;;16.60;46.80;;;;;;6092284;23;20136;-84
2021/01/01 06:04:39;;;;;;;4.35;3.70;;;16.70;46.90;;;;;;6091652;23;20634;-84
2021/01/01 06:07:10;;;;;;;4.68;3.80;;;16.70;46.80;;;;;;6067539;23;20171;-84
2021/01/01 06:09:40;;;;;;;4.57;4.05;;;16.70;46.80;;;;;;6068241;23;20144;-84
2021/01/01 06:12:09;;;;;;;4.25;3.80;;;16.70;46.60;;;;;;6091300;23;20159;-84
2021/01/01 06:14:49;;;;;;;5.03;4.28;;;16.70;46.50;;;;;;6115836;23;20155;-83
2021/01/01 06:17:18;;;;;;;4.75;4.20;;;16.70;46.60;;;;;;6090652;23;20156;-84
2021/01/01 06:19:51;;;;;;;4.95;4.45;;;16.60;46.80;;;;;;6066838;23;20180;-85
2021/01/01 06:22:18;;;;;;;4.88;4.00;;;16.60;46.80;;;;;;6141542;23;20144;-83
2021/01/01 06:25:00;;;;;;;4.80;4.30;;;16.70;46.60;;;;;;6091194;23;20169;-84
2021/01/01 06:27:37;;;;;;;4.38;3.97;;;16.70;46.60;;;;;;6116319;23;20140;-84
2021/01/01 06:30:11;;;;;;;4.95;4.18;;;16.60;46.60;;;;;;6092201;23;20144;-84
2021/01/01 06:32:39;;;;;;;4.65;4.00;;;16.60;46.70;;;;;;6114965;23;20155;-84
2021/01/01 06:35:16;;;;;;;4.75;4.13;;;16.70;46.50;;;;;;6115639;23;20137;-84
2021/01/01 06:37:49;;;;;;;5.13;4.47;;;16.70;46.50;;;;;;6115258;23;20192;-84
2021/01/01 06:40:23;;;;;;;5.03;4.53;;;16.70;46.60;;;;;;6068387;23;20535;-84
2021/01/01 06:42:57;;;;;;;4.88;4.35;;;16.70;46.30;;;;;;6115631;23;20156;-83
2021/01/01 06:45:41;;;;;;;4.90;4.30;;;16.80;46.30;;;;;;6091375;23;20179;-84
2021/01/01 06:48:31;;;;;;;4.55;4.10;;;16.70;46.30;;;;;;6141480;23;20141;-84
2021/01/01 06:51:15;;;;;;;4.70;4.15;;;16.60;46.30;;;;;;6114684;23;20172;-84
2021/01/01 06:53:51;;;;;;;4.90;4.38;;;16.70;46.30;;;;;;6115408;23;20205;-84
2021/01/01 06:56:26;;;;;;;5.18;4.20;;;16.70;46.30;;;;;;6091804;23;20144;-84
2021/01/01 06:59:22;;;;;;;4.30;3.88;;;16.70;46.30;;;;;;6068596;23;20148;-84
2021/01/01 07:01:55;;;;;;;4.63;4.18;;;16.70;46.40;;;;;;6091006;23;20211;-84
2021/01/01 07:04:23;;;;;;;4.80;4.30;;;16.70;46.40;;;;;;6067496;23;20180;-84
2021/01/01 07:06:49;;;;;;;4.57;4.15;;;16.60;46.40;;;;;;6091732;23;20139;-83
2021/01/01 07:09:50;;;;;;;4.72;4.15;;;16.60;46.40;;;;;;6091693;23;20159;-85
2021/01/01 07:12:16;;;;;;;4.30;3.90;;;16.70;46.20;;;;;;6027404;23;20193;-85
2021/01/01 07:14:45;;;;;;;5.13;4.30;;;16.70;46.20;;;;;;6005290;23;20166;-84
2021/01/01 07:17:19;;;;;;;4.88;4.35;;;16.70;46.10;;;;;;6005592;23;20150;-83
2021/01/01 07:19:45;;;;;;;5.20;4.20;;;16.70;46.20;;;;;;6004223;23;20218;-84
2021/01/01 07:22:16;;;;;;;4.88;4.25;;;16.70;46.90;;;;;;6006266;23;20150;-84
2021/01/01 07:24:49;;;;;;;5.40;4.20;;;16.60;46.50;;;;;;5982472;23;20182;-84
2021/01/01 07:27:18;;;;;;;4.68;4.18;;;16.60;46.50;;;;;;6029030;23;20153;-84
2021/01/01 07:30:09;;;;;;;4.88;4.20;;;16.60;46.50;;;;;;6006285;23;20212;-83
2021/01/01 07:32:46;;;;;;;4.80;4.25;;;16.60;46.30;;;;;;6028647;23;20165;-84
2021/01/01 07:35:16;;;;;;;4.82;4.25;;;16.70;46.20;;;;;;6030064;23;20138;-84
2021/01/01 07:37:45;;;;;;;5.22;4.45;;;16.70;46.10;;;;;;6029894;23;20197;-84
2021/01/01 07:40:17;;;;;;;4.78;4.10;;;16.70;46.20;;;;;;6030510;23;20165;-84
2021/01/01 07:42:51;;;;;;;4.93;4.43;;;16.60;46.20;;;;;;6053566;23;20217;-84
2021/01/01 07:45:17;;;;;;;4.47;4.07;;;16.60;46.20;;;;;;6063196;23;20209;-85
2021/01/01 07:47:45;;;;;;;4.72;4.10;;;16.70;46.20;;;;;;6069024;23;20151;-84
2021/01/01 07:50:17;;;;;;;4.53;4.10;;;16.70;45.80;;;;;;6093176;23;20137;-83
2021/01/01 07:52:43;;;;;;;4.70;4.07;;;16.70;46.00;;;;;;6116255;23;20592;-84
2021/01/01 07:55:22;;;;;;;5.32;4.10;;;16.70;46.00;;;;;;6068683;23;20520;-84
2021/01/01 07:58:15;;;;;;;4.55;4.10;;;16.70;46.00;;;;;;6093231;23;20201;-84
2021/01/01 08:00:46;;;;;;;5.07;4.18;;;16.80;45.80;;;;;;6116872;23;20184;-84
2021/01/01 08:03:14;;;;;;;4.25;3.75;;;16.80;45.60;;;;;;6069154;23;20152;-83
2021/01/01 08:05:45;;;;;;;4.68;4.03;;;16.80;45.80;;;;;;6093295;23;20250;-84
2021/01/01 08:08:22;;;;;;;4.78;4.20;;;16.70;46.00;;;;;;6092886;23;20187;-84
2021/01/01 08:10:58;;;;;;;5.28;4.40;;;16.70;45.90;;;;;;6069756;23;20152;-84
2021/01/01 08:13:34;;;;;;;4.63;3.75;;;16.70;45.90;;;;;;6116683;23;20144;-84
2021/01/01 08:16:14;;;;;;;4.50;4.07;;;16.70;45.90;;;;;;6116432;23;20203;-84
2021/01/01 08:18:40;;;;;;;4.38;3.88;;;16.70;45.90;;;;;;6093373;23;20163;-84
2021/01/01 08:21:08;;;;;;;4.47;3.92;;;16.60;46.10;;;;;;6068597;23;20217;-84
2021/01/01 08:23:48;;;;;;;4.95;4.07;;;16.60;45.90;;;;;;6092687;23;20144;-84
2021/01/01 08:26:19;;;;;;;4.97;4.47;;;16.70;45.90;;;;;;6069086;23;20156;-83
2021/01/01 08:28:49;;;;;;;4.93;4.20;;;16.80;45.60;;;;;;6068797;23;20140;-85
2021/01/01 08:31:18;;;;;;;4.68;3.95;;;16.80;45.70;;;;;;6069150;23;20279;-84
2021/01/01 08:33:44;;;;;;;4.30;3.90;;;16.70;45.70;;;;;;6092644;23;20196;-84
2021/01/01 08:36:17;;;;;;;5.07;4.13;;;16.60;45.90;;;;;;6068680;23;20152;-83
2021/01/01 08:38:43;;;;;;;4.20;3.70;;;16.60;45.90;;;;;;6091821;23;20148;-83
2021/01/01 08:41:15;;;;;;;4.18;3.72;;;16.70;45.80;;;;;;6066639;23;20184;-84
2021/01/01 08:43:41;;;;;;;4.53;4.00;;;16.70;45.80;;;;;;6093188;23;20159;-83
2021/01/01 08:46:28;;;;;;;4.35;3.95;;;16.70;45.60;;;;;;6092570;23;20128;-83
2021/01/01 08:49:18;;;;;;;4.60;4.00;;;16.70;45.80;;;;;;6069158;23;20143;-83
2021/01/01 08:51:48;;;;;;;5.18;4.20;;;16.70;45.60;;;;;;6094537;23;20125;-84
2021/01/01 08:54:24;;;;;;;4.28;3.88;;;16.70;45.70;;;;;;6067998;23;20207;-84
2021/01/01 08:56:59;;;;;;;4.50;3.83;;;16.70;45.70;;;;;;6067697;23;20152;-84
2021/01/01 08:59:26;;;;;;;4.28;3.80;;;16.70;45.80;;;;;;6067902;23;20154;-83
2021/01/01 09:01:59;;;;;;;4.50;4.03;;;16.70;45.70;;;;;;6067985;23;20155;-84
2021/01/01 09:04:35;;;;;;;4.40;3.92;;;16.70;45.80;;;;;;6069148;23;20172;-83
2021/01/01 09:07:04;;;;;;;4.45;4.05;;;16.60;45.70;;;;;;6116590;23;20143;-84
2021/01/01 09:09:35;;;;;;;4.95;4.28;;;16.70;45.70;;;;;;6092323;23;20145;-84
2021/01/01 09:12:21;;;;;;;5.13;4.10;;;16.60;45.80;;;;;;6068135;23;20642;-83
2021/01/01 09:15:03;;;;;;;3.95;3.55;;;16.70;45.90;;;;;;6116065;23;20588;-84
2021/01/01 09:17:37;;;;;;;4.63;4.00;;;16.80;46.20;;;;;;6141727;23;20144;-83
2021/01/01 09:20:10;;;;;;;4.25;3.67;;;16.80;45.50;;;;;;6116491;23;20159;-84
2021/01/01 09:22:38;;;;;;;4.30;3.90;;;16.70;45.60;;;;;;6067671;23;20196;-84
2021/01/01 09:25:23;;;;;;;4.40;3.97;;;16.70;45.60;;;;;;6091226;23;20174;-83
2021/01/01 09:27:58;;;;;;;4.97;4.38;;;16.70;45.60;;;;;;6115710;23;20148;-84
2021/01/01 09:30:30;;;;;;;5.00;4.13;;;16.70;45.50;;;;;;6092710;23;20159;-84
2021/01/01 09:33:02;;;;;;;4.22;3.83;;;16.80;45.50;;;;;;6092143;23;20152;-83
2021/01/01 09:35:30;;;;;;;6.03;4.50;;;16.80;45.40;;;;;;6091081;23;20155;-84
2021/01/01 09:38:03;;;;;;;4.63;3.92;;;16.70;45.50;;;;;;6067674;23;20603;-83
2021/01/01 09:40:41;;;;;;;4.10;3.65;;;16.80;45.40;;;;;;6067878;23;20160;-83
2021/01/01 09:43:09;;;;;;;3.90;3.50;;;16.70;45.50;;;;;;6141256;23;20128;-83
2021/01/01 09:45:39;;;;;;;4.45;3.55;;;16.70;45.60;;;;;;6115816;23;20202;-84
2021/01/01 09:48:07;;;;;;;4.20;3.80;;;16.70;45.60;;;;;;6115094;23;20188;-84
2021/01/01 09:50:52;;;;;;;4.25;3.85;;;16.70;45.40;;;;;;6116011;23;20159;-83
2021/01/01 09:53:26;;;;;;;4.35;3.95;;;16.70;45.50;;;;;;6091869;23;20156;-83
2021/01/01 09:55:56;;;;;;;4.63;3.80;;;16.70;45.50;;;;;;6141144;23;20136;-84
2021/01/01 09:58:24;;;;;;;4.78;3.97;;;16.70;45.50;;;;;;6092114;23;20156;-84
2021/01/01 10:01:02;;;;;;;4.22;3.80;;;16.70;45.60;;;;;;6116064;23;20584;-84
2021/01/01 10:03:44;;;;;;;3.80;3.42;;;16.60;45.60;;;;;;6091354;23;20215;-84
2021/01/01 10:06:14;;;;;;;4.40;4.00;;;16.60;45.70;;;;;;6092353;23;20155;-84
2021/01/01 10:08:41;;;;;;;3.90;3.50;;;16.70;45.60;;;;;;6091628;23;20652;-83
2021/01/01 10:11:11;;;;;;;4.50;3.83;;;16.70;45.50;;;;;;6090117;23;20528;-83
2021/01/01 10:13:41;;;;;;;4.10;3.70;;;16.70;45.60;;;;;;6115390;23;20139;-84
2021/01/01 10:16:12;;;;;;;4.10;3.70;;;16.70;45.70;;;;;;6091108;23;20133;-83
2021/01/01 10:18:38;;;;;;;4.55;3.78;;;16.70;45.60;;;;;;6091015;23;20215;-83
2021/01/01 10:21:04;;;;;;;4.30;3.60;;;16.70;45.60;;;;;;6091253;23;20195;-83
2021/01/01 10:23:31;;;;;;;4.32;3.67;;;16.70;45.50;;;;;;6141653;23;20182;-84
2021/01/01 10:26:04;;;;;;;3.65;3.30;;;16.70;45.50;;;;;;6091331;23;20164;-83
2021/01/01 10:28:32;;;;;;;3.95;3.55;;;16.70;45.50;;;;;;6115201;23;20591;-83
2021/01/01 10:31:01;;;;;;;4.05;3.55;;;16.70;45.60;;;;;;6115272;23;20133;-83
2021/01/01 10:33:31;;;;;;;3.85;3.38;;;16.70;45.50;;;;;;6092140;23;20175;-84
2021/01/01 10:35:57;;;;;;;4.43;3.50;;;16.60;45.50;;;;;;6066984;23;20283;-83
2021/01/01 10:38:40;;;;;;;4.03;3.63;;;16.60;45.60;;;;;;6115854;23;20512;-83
2021/01/01 10:41:12;;;;;;;4.35;3.60;;;16.70;45.70;;;;;;6115048;23;20136;-84
2021/01/01 10:43:43;;;;;;;3.65;3.35;;;16.60;45.70;;;;;;6091942;23;20152;-83
2021/01/01 10:46:22;;;;;;;4.38;3.53;;;16.60;45.70;;;;;;6091168;23;20143;-84
2021/01/01 10:48:59;;;;;;;3.97;3.58;;;16.70;45.50;;;;;;6092210;23;20140;-83
2021/01/01 10:51:40;;;;;;;3.75;3.38;;;16.60;45.60;;;;;;6068194;23;20150;-84
2021/01/01 10:54:06;;;;;;;4.20;3.80;;;16.60;45.60;;;;;;6091418;23;20152;-83
2021/01/01 10:56:37;;;;;;;3.92;3.53;;;16.60;45.60;;;;;;6092021;23;20159;-84
2021/01/01 10:59:23;;;;;;;4.28;3.58;;;16.60;45.70;;;;;;6092382;23;20135;-83
2021/01/01 11:01:55;;;;;;;4.05;3.47;;;16.60;45.60;;;;;;6092073;23;20171;-83
2021/01/01 11:04:30;;;;;;;3.70;3.40;;;16.70;45.60;;;;;;6093084;23;20186;-83
2021/01/01 11:06:57;;;;;;;4.10;3.60;;;16.70;45.50;;;;;;6117029;23;20143;-83
2021/01/01 11:09:47;;;;;;;3.92;3.53;;;16.70;45.50;;;;;;6117139;23;20139;-83
2021/01/01 11:12:17;;;;;;;4.10;3.70;;;16.70;45.60;;;;;;6095832;23;20145;-84
2021/01/01 12:27:01;;;;;;;3.88;3.28;;;16.80;45.20;;;;;;6116461;23;20169;-84
2021/01/01 12:29:33;;;;;;;3.90;3.35;;;16.80;45.20;;;;;;6069855;23;20151;-84
2021/01/01 12:32:05;;;;;;;4.07;3.28;;;16.80;45.20;;;;;;6069091;23;20152;-83
2021/01/01 12:34:32;;;;;;;4.20;3.63;;;16.80;45.30;;;;;;6092577;23;20234;-83
2021/01/01 12:36:58;;;;;;;3.58;3.22;;;16.70;45.50;;;;;;6068559;23;20158;-83
2021/01/01 12:39:29;;;;;;;3.70;3.20;;;16.70;45.40;;;;;;6092922;23;20156;-83
2021/01/01 12:41:57;;;;;;;3.30;3.00;;;16.80;45.20;;;;;;6068532;23;20183;-84
2021/01/01 12:44:29;;;;;;;4.32;3.40;;;16.80;45.30;;;;;;6116233;23;20236;-84
2021/01/01 12:46:56;;;;;;;3.80;3.40;;;16.80;45.30;;;;;;6142274;23;20132;-84
2021/01/01 12:49:22;;;;;;;3.90;3.50;;;16.70;45.30;;;;;;6068768;23;20155;-83
2021/01/01 12:51:51;;;;;;;3.45;3.13;;;16.70;45.40;;;;;;6091836;23;20152;-83
2021/01/01 12:54:22;;;;;;;4.10;3.38;;;16.70;45.30;;;;;;6093224;23;20137;-83
2021/01/01 12:57:00;;;;;;;3.80;3.40;;;16.70;45.40;;;;;;6092510;23;20156;-83
2021/01/01 12:59:33;;;;;;;3.30;3.00;;;16.70;45.30;;;;;;6092123;23;20155;-83
2021/01/01 13:02:01;;;;;;;3.63;3.00;;;16.70;45.30;;;;;;6116090;23;20499;-83
2021/01/01 13:04:39;;;;;;;3.38;3.08;;;16.70;45.40;;;;;;6117222;23;20160;-83
2021/01/01 13:07:09;;;;;;;3.50;3.20;;;16.70;45.40;;;;;;6116358;23;20167;-83
2021/01/01 13:09:40;;;;;;;3.65;3.25;;;16.70;45.50;;;;;;6116390;23;20136;-84
2021/01/01 13:12:10;;;;;;;3.90;3.40;;;16.70;45.40;;;;;;6115717;23;20187;-83
2021/01/01 13:14:41;;;;;;;3.40;3.10;;;16.70;45.40;;;;;;6092509;23;20211;-83
2021/01/01 13:17:10;;;;;;;3.47;3.13;;;16.80;45.30;;;;;;6069047;23;20183;-83
2021/01/01 13:19:40;;;;;;;3.50;3.20;;;16.70;45.30;;;;;;6067887;23;20155;-83
2021/01/01 13:22:08;;;;;;;3.17;2.88;;;16.80;45.20;;;;;;6115887;23;20218;-83
2021/01/01 13:24:37;;;;;;;3.58;3.08;;;16.70;45.30;;;;;;6067445;23;20713;-84
2021/01/01 13:27:12;;;;;;;3.47;3.17;;;16.80;45.10;;;;;;6116130;23;20140;-83
2021/01/01 13:29:50;;;;;;;3.20;2.90;;;16.80;45.20;;;;;;6091840;23;20152;-83
2021/01/01 13:32:24;;;;;;;3.45;2.97;;;16.70;45.30;;;;;;6068096;23;20203;-83
2021/01/01 13:34:52;;;;;;;3.40;3.10;;;16.80;45.20;;;;;;6115656;23;20160;-84
2021/01/01 13:37:30;;;;;;;3.30;2.95;;;16.70;45.30;;;;;;6092428;23;20196;-83
2021/01/01 13:40:02;;;;;;;2.90;2.60;;;16.70;45.40;;;;;;6068406;23;20147;-83
2021/01/01 13:42:28;;;;;;;2.97;2.67;;;16.70;45.40;;;;;;6093425;23;20141;-83
2021/01/01 13:44:59;;;;;;;3.30;3.00;;;16.70;45.30;;;;;;6091493;23;20176;-83
2021/01/01 13:47:34;;;;;;;3.20;2.90;;;16.70;45.40;;;;;;6091490;23;20179;-84
2021/01/01 13:50:04;;;;;;;3.28;2.70;;;16.70;45.30;;;;;;6091786;23;20147;-84
2021/01/01 13:52:36;;;;;;;3.33;2.95;;;16.70;45.40;;;;;;6093061;23;20137;-84
2021/01/01 13:55:02;;;;;;;3.00;2.70;;;16.70;45.40;;;;;;6116402;23;20573;-83
2021/01/01 13:57:29;;;;;;;3.17;2.83;;;16.70;45.40;;;;;;6115543;23;20141;-84
2021/01/01 14:00:03;;;;;;;3.10;2.80;;;16.70;45.50;;;;;;6091424;23;20214;-84
2021/01/01 14:02:30;;;;;;;3.10;2.80;;;16.60;45.50;;;;;;6116607;23;20137;-84
2021/01/01 14:05:00;;;;;;;3.15;2.85;;;16.60;45.50;;;;;;6092336;23;20259;-83
2021/01/01 14:07:28;;;;;;;3.28;2.83;;;16.70;45.40;;;;;;6116626;23;20128;-83
2021/01/01 14:09:55;;;;;;;2.90;2.55;;;16.70;45.40;;;;;;6092305;23;20152;-84
2021/01/01 14:12:31;;;;;;;3.13;2.83;;;16.70;45.30;;;;;;6091871;23;20140;-84
2021/01/01 14:15:02;;;;;;;3.03;2.70;;;16.70;45.20;;;;;;6115766;23;20144;-83
2021/01/01 14:17:34;;;;;;;2.85;2.63;;;16.80;45.10;;;;;;6091262;23;20540;-84
2021/01/01 14:20:04;;;;;;;2.90;2.65;;;16.70;45.10;;;;;;6092774;23;20144;-84
2021/01/01 14:22:33;;;;;;;3.08;2.70;;;16.80;45.20;;;;;;6091400;23;20222;-84
2021/01/01 14:25:03;;;;;;;3.17;2.83;;;16.80;45.20;;;;;;6066975;23;20184;-84
2021/01/01 14:27:33;;;;;;;3.03;2.72;;;16.80;45.10;;;;;;6091519;23;20208;-84
2021/01/01 14:30:03;;;;;;;3.38;3.05;;;16.70;45.10;;;;;;6068009;23;20208;-83